Alix, Arkansas
Current Conditions -  °F | °C
As of 8:53 PM on Tuesday 25 Nov 2014 (Local Time) from KFSM Reporting Station
Clear Clear  
Wind Chill: 37°   Ceiling: Unl
Heat Index: 37°   Visibility: 10mi
Dew Point: 27°   Wind: 0mph
Humidity: 67%   Direction: NA
Pressure: 30.16"   Gusts: NA
Location:  35.43°N, 93.73°W
Report Text: KFSM 260253Z 00000KT 10SM CLR 03/M03 A3016 RMK AO2 SLP214 T00281028 58005
Loading
Personal Weather Stations






























Interactive Weather Map New forecast layout! Learn more

10-Day Weather Forecast

Advertisements
Track Severe Weather on mobile